Grand Pass, Missouri
Current Conditions -  °F | °C
As of 10:58 PM on Wednesday 22 Oct 2014 (Local Time) from KSZL Reporting Station
Clear Clear  
Wind Chill: 55°   Ceiling: Unl
Heat Index: 55°   Visibility: 10mi
Dew Point: 46°   Wind: 6mph
Humidity: 74%   Direction: 150°SSE
Pressure: 30.14"   Gusts: NA
Location:  39.2052°N, 93.3822°W
Report Text: KSZL 230358Z AUTO 15005KT 10SM CLR 13/08 A3014 RMK AO2 SLP208 T01260080 $
Loading
Personal Weather Stations






























Interactive Weather Map
Tropical Storm Tracking
New forecast layout! Learn more

10-Day Weather Forecast

Advertisements
Track Severe Weather on mobile